sensor_id;sensor_type;location;lat;lon;timestamp;P1;durP1;ratioP1;P2;durP2;ratioP2
59312;SDS011;45084;51.486;7.366;2023-08-17T00:00:22;13.95;;;8.85;;
59312;SDS011;45084;51.486;7.366;2023-08-17T00:02:48;13.10;;;8.15;;
59312;SDS011;45084;51.486;7.366;2023-08-17T00:05:13;15.55;;;9.02;;
59312;SDS011;45084;51.486;7.366;2023-08-17T00:07:39;13.90;;;9.50;;
59312;SDS011;45084;51.486;7.366;2023-08-17T00:10:05;11.30;;;7.70;;
59312;SDS011;45084;51.486;7.366;2023-08-17T00:12:30;13.02;;;8.52;;
59312;SDS011;45084;51.486;7.366;2023-08-17T00:14:56;13.27;;;8.30;;
59312;SDS011;45084;51.486;7.366;2023-08-17T00:17:21;12.65;;;8.88;;
59312;SDS011;45084;51.486;7.366;2023-08-17T00:19:47;12.63;;;9.32;;
59312;SDS011;45084;51.486;7.366;2023-08-17T00:22:13;12.90;;;8.60;;
59312;SDS011;45084;51.486;7.366;2023-08-17T00:24:38;11.50;;;9.45;;
59312;SDS011;45084;51.486;7.366;2023-08-17T00:27:05;17.77;;;10.32;;
59312;SDS011;45084;51.486;7.366;2023-08-17T00:29:31;13.75;;;8.73;;
59312;SDS011;45084;51.486;7.366;2023-08-17T00:31:57;7.13;;;6.15;;
59312;SDS011;45084;51.486;7.366;2023-08-17T00:34:23;15.98;;;7.40;;
59312;SDS011;45084;51.486;7.366;2023-08-17T00:36:48;9.35;;;7.20;;
59312;SDS011;45084;51.486;7.366;2023-08-17T00:39:14;11.70;;;7.75;;
59312;SDS011;45084;51.486;7.366;2023-08-17T00:41:39;17.17;;;9.27;;
59312;SDS011;45084;51.486;7.366;2023-08-17T00:44:05;13.48;;;8.70;;
59312;SDS011;45084;51.486;7.366;2023-08-17T00:46:31;11.15;;;7.47;;
59312;SDS011;45084;51.486;7.366;2023-08-17T00:48:57;6.72;;;5.30;;
59312;SDS011;45084;51.486;7.366;2023-08-17T00:51:23;8.15;;;4.47;;
59312;SDS011;45084;51.486;7.366;2023-08-17T00:53:52;6.18;;;3.83;;
59312;SDS011;45084;51.486;7.366;2023-08-17T00:56:20;6.70;;;4.90;;
59312;SDS011;45084;51.486;7.366;2023-08-17T00:58:46;7.28;;;5.00;;
59312;SDS011;45084;51.486;7.366;2023-08-17T01:01:13;7.20;;;5.95;;
59312;SDS011;45084;51.486;7.366;2023-08-17T01:03:39;6.15;;;5.60;;
59312;SDS011;45084;51.486;7.366;2023-08-17T01:06:08;5.68;;;5.18;;
59312;SDS011;45084;51.486;7.366;2023-08-17T01:08:35;7.65;;;5.53;;
59312;SDS011;45084;51.486;7.366;2023-08-17T01:11:48;12.02;;;7.60;;
59312;SDS011;45084;51.486;7.366;2023-08-17T01:14:14;7.72;;;6.95;;
59312;SDS011;45084;51.486;7.366;2023-08-17T01:16:50;8.98;;;5.88;;
59312;SDS011;45084;51.486;7.366;2023-08-17T01:19:26;8.27;;;6.55;;
59312;SDS011;45084;51.486;7.366;2023-08-17T01:21:54;8.77;;;7.03;;
59312;SDS011;45084;51.486;7.366;2023-08-17T01:24:25;7.32;;;6.65;;
59312;SDS011;45084;51.486;7.366;2023-08-17T01:26:51;8.48;;;7.50;;
59312;SDS011;45084;51.486;7.366;2023-08-17T01:29:17;12.27;;;6.68;;
59312;SDS011;45084;51.486;7.366;2023-08-17T01:31:54;9.80;;;7.80;;
59312;SDS011;45084;51.486;7.366;2023-08-17T01:34:28;10.32;;;8.48;;
59312;SDS011;45084;51.486;7.366;2023-08-17T01:36:58;9.05;;;7.45;;
59312;SDS011;45084;51.486;7.366;2023-08-17T01:39:27;9.93;;;8.70;;
59312;SDS011;45084;51.486;7.366;2023-08-17T01:42:02;13.05;;;9.13;;
59312;SDS011;45084;51.486;7.366;2023-08-17T01:44:30;12.02;;;9.10;;
59312;SDS011;45084;51.486;7.366;2023-08-17T01:46:56;12.13;;;9.32;;
59312;SDS011;45084;51.486;7.366;2023-08-17T01:49:21;12.80;;;8.75;;
59312;SDS011;45084;51.486;7.366;2023-08-17T01:51:47;16.05;;;10.50;;
59312;SDS011;45084;51.486;7.366;2023-08-17T01:54:13;11.48;;;8.98;;
59312;SDS011;45084;51.486;7.366;2023-08-17T01:56:38;13.65;;;8.70;;
59312;SDS011;45084;51.486;7.366;2023-08-17T01:59:04;14.50;;;10.82;;
59312;SDS011;45084;51.486;7.366;2023-08-17T02:01:29;12.27;;;10.13;;
59312;SDS011;45084;51.486;7.366;2023-08-17T02:03:55;13.68;;;10.95;;
59312;SDS011;45084;51.486;7.366;2023-08-17T02:06:20;14.27;;;10.90;;
59312;SDS011;45084;51.486;7.366;2023-08-17T02:08:46;18.88;;;13.45;;
59312;SDS011;45084;51.486;7.366;2023-08-17T02:11:11;16.77;;;12.10;;
59312;SDS011;45084;51.486;7.366;2023-08-17T02:13:37;15.63;;;13.13;;
59312;SDS011;45084;51.486;7.366;2023-08-17T02:16:03;22.63;;;15.32;;
59312;SDS011;45084;51.486;7.366;2023-08-17T02:18:29;20.60;;;14.60;;
59312;SDS011;45084;51.486;7.366;2023-08-17T02:20:56;17.10;;;14.32;;
59312;SDS011;45084;51.486;7.366;2023-08-17T02:23:22;21.95;;;15.77;;
59312;SDS011;45084;51.486;7.366;2023-08-17T02:25:48;17.60;;;13.90;;
59312;SDS011;45084;51.486;7.366;2023-08-17T02:28:13;19.63;;;13.80;;
59312;SDS011;45084;51.486;7.366;2023-08-17T02:30:39;15.93;;;12.88;;
59312;SDS011;45084;51.486;7.366;2023-08-17T02:33:05;18.77;;;12.90;;
59312;SDS011;45084;51.486;7.366;2023-08-17T02:35:30;18.52;;;12.90;;
59312;SDS011;45084;51.486;7.366;2023-08-17T02:37:56;13.68;;;12.27;;
59312;SDS011;45084;51.486;7.366;2023-08-17T02:40:21;16.98;;;13.40;;
59312;SDS011;45084;51.486;7.366;2023-08-17T02:42:47;15.50;;;12.40;;
59312;SDS011;45084;51.486;7.366;2023-08-17T02:45:13;14.70;;;12.77;;
59312;SDS011;45084;51.486;7.366;2023-08-17T02:47:38;16.35;;;11.80;;
59312;SDS011;45084;51.486;7.366;2023-08-17T02:50:04;15.38;;;11.90;;
59312;SDS011;45084;51.486;7.366;2023-08-17T02:52:30;17.73;;;12.13;;
59312;SDS011;45084;51.486;7.366;2023-08-17T02:54:56;16.80;;;12.32;;
59312;SDS011;45084;51.486;7.366;2023-08-17T02:57:21;16.88;;;11.15;;
59312;SDS011;45084;51.486;7.366;2023-08-17T02:59:47;11.80;;;9.70;;
59312;SDS011;45084;51.486;7.366;2023-08-17T03:02:12;11.00;;;8.75;;
59312;SDS011;45084;51.486;7.366;2023-08-17T03:04:38;11.55;;;9.13;;
59312;SDS011;45084;51.486;7.366;2023-08-17T03:07:03;12.73;;;9.90;;
59312;SDS011;45084;51.486;7.366;2023-08-17T03:09:29;11.32;;;8.70;;
59312;SDS011;45084;51.486;7.366;2023-08-17T03:11:55;18.95;;;10.55;;
59312;SDS011;45084;51.486;7.366;2023-08-17T03:14:20;10.93;;;8.18;;
59312;SDS011;45084;51.486;7.366;2023-08-17T03:16:46;14.80;;;8.55;;
59312;SDS011;45084;51.486;7.366;2023-08-17T03:19:11;16.08;;;9.20;;
59312;SDS011;45084;51.486;7.366;2023-08-17T03:21:37;12.00;;;9.38;;
59312;SDS011;45084;51.486;7.366;2023-08-17T03:24:03;9.20;;;8.27;;
59312;SDS011;45084;51.486;7.366;2023-08-17T03:26:29;14.07;;;8.70;;
59312;SDS011;45084;51.486;7.366;2023-08-17T03:28:54;10.48;;;8.20;;
59312;SDS011;45084;51.486;7.366;2023-08-17T03:31:23;12.63;;;9.82;;
59312;SDS011;45084;51.486;7.366;2023-08-17T03:33:48;13.57;;;9.73;;
59312;SDS011;45084;51.486;7.366;2023-08-17T03:36:14;19.58;;;10.15;;
59312;SDS011;45084;51.486;7.366;2023-08-17T03:38:40;13.75;;;10.13;;
59312;SDS011;45084;51.486;7.366;2023-08-17T03:41:06;12.55;;;10.10;;
59312;SDS011;45084;51.486;7.366;2023-08-17T03:43:32;11.82;;;10.05;;
59312;SDS011;45084;51.486;7.366;2023-08-17T03:45:57;16.45;;;11.27;;
59312;SDS011;45084;51.486;7.366;2023-08-17T03:48:23;14.90;;;10.20;;
59312;SDS011;45084;51.486;7.366;2023-08-17T03:50:52;15.82;;;9.88;;
59312;SDS011;45084;51.486;7.366;2023-08-17T03:53:19;14.38;;;9.70;;
59312;SDS011;45084;51.486;7.366;2023-08-17T03:55:48;13.35;;;10.35;;
59312;SDS011;45084;51.486;7.366;2023-08-17T03:58:14;22.13;;;10.73;;
59312;SDS011;45084;51.486;7.366;2023-08-17T04:00:40;14.20;;;11.88;;
59312;SDS011;45084;51.486;7.366;2023-08-17T04:03:07;13.73;;;11.25;;
59312;SDS011;45084;51.486;7.366;2023-08-17T04:05:33;18.38;;;11.25;;
59312;SDS011;45084;51.486;7.366;2023-08-17T04:07:59;18.33;;;12.05;;
59312;SDS011;45084;51.486;7.366;2023-08-17T04:10:27;13.35;;;11.95;;
59312;SDS011;45084;51.486;7.366;2023-08-17T04:12:58;17.70;;;13.23;;
59312;SDS011;45084;51.486;7.366;2023-08-17T04:15:24;16.83;;;11.77;;
59312;SDS011;45084;51.486;7.366;2023-08-17T04:17:50;16.92;;;13.43;;
59312;SDS011;45084;51.486;7.366;2023-08-17T04:20:15;22.50;;;12.70;;
59312;SDS011;45084;51.486;7.366;2023-08-17T04:22:41;15.70;;;12.15;;
59312;SDS011;45084;51.486;7.366;2023-08-17T04:25:06;23.83;;;13.35;;
59312;SDS011;45084;51.486;7.366;2023-08-17T04:27:32;18.02;;;13.20;;
59312;SDS011;45084;51.486;7.366;2023-08-17T04:29:58;19.63;;;12.82;;
59312;SDS011;45084;51.486;7.366;2023-08-17T04:32:24;18.13;;;13.18;;
59312;SDS011;45084;51.486;7.366;2023-08-17T04:34:50;22.33;;;13.75;;
59312;SDS011;45084;51.486;7.366;2023-08-17T04:37:16;21.40;;;13.52;;
59312;SDS011;45084;51.486;7.366;2023-08-17T04:39:41;18.75;;;12.57;;
59312;SDS011;45084;51.486;7.366;2023-08-17T04:42:08;20.27;;;12.35;;
59312;SDS011;45084;51.486;7.366;2023-08-17T04:44:34;18.58;;;12.57;;
59312;SDS011;45084;51.486;7.366;2023-08-17T04:46:59;19.23;;;12.75;;
59312;SDS011;45084;51.486;7.366;2023-08-17T04:49:25;13.75;;;12.13;;
59312;SDS011;45084;51.486;7.366;2023-08-17T04:51:51;18.30;;;13.13;;
59312;SDS011;45084;51.486;7.366;2023-08-17T04:54:18;20.30;;;13.55;;
59312;SDS011;45084;51.486;7.366;2023-08-17T04:56:44;18.63;;;11.95;;
59312;SDS011;45084;51.486;7.366;2023-08-17T04:59:10;19.92;;;14.10;;
59312;SDS011;45084;51.486;7.366;2023-08-17T05:01:36;16.13;;;12.57;;
59312;SDS011;45084;51.486;7.366;2023-08-17T05:04:02;18.58;;;13.77;;
59312;SDS011;45084;51.486;7.366;2023-08-17T05:06:28;18.17;;;13.05;;
59312;SDS011;45084;51.486;7.366;2023-08-17T05:08:54;15.70;;;13.52;;
59312;SDS011;45084;51.486;7.366;2023-08-17T05:11:20;15.23;;;12.75;;
59312;SDS011;45084;51.486;7.366;2023-08-17T05:13:45;15.82;;;13.90;;
59312;SDS011;45084;51.486;7.366;2023-08-17T05:16:11;15.15;;;12.38;;
59312;SDS011;45084;51.486;7.366;2023-08-17T05:18:36;18.20;;;12.35;;
59312;SDS011;45084;51.486;7.366;2023-08-17T05:21:02;14.95;;;12.25;;
59312;SDS011;45084;51.486;7.366;2023-08-17T05:23:28;18.05;;;13.68;;
59312;SDS011;45084;51.486;7.366;2023-08-17T05:25:53;16.52;;;13.45;;
59312;SDS011;45084;51.486;7.366;2023-08-17T05:28:19;16.10;;;12.68;;
59312;SDS011;45084;51.486;7.366;2023-08-17T05:30:44;17.00;;;12.60;;
59312;SDS011;45084;51.486;7.366;2023-08-17T05:33:10;19.20;;;14.95;;
59312;SDS011;45084;51.486;7.366;2023-08-17T05:35:35;18.95;;;14.82;;
59312;SDS011;45084;51.486;7.366;2023-08-17T05:38:01;21.77;;;14.90;;
59312;SDS011;45084;51.486;7.366;2023-08-17T05:40:29;19.27;;;14.50;;
59312;SDS011;45084;51.486;7.366;2023-08-17T05:42:55;21.85;;;15.18;;
59312;SDS011;45084;51.486;7.366;2023-08-17T05:45:21;23.13;;;15.73;;
59312;SDS011;45084;51.486;7.366;2023-08-17T05:47:46;21.20;;;15.18;;
59312;SDS011;45084;51.486;7.366;2023-08-17T05:50:12;23.85;;;15.40;;
59312;SDS011;45084;51.486;7.366;2023-08-17T05:52:38;19.08;;;15.68;;
59312;SDS011;45084;51.486;7.366;2023-08-17T05:55:05;21.42;;;17.40;;
59312;SDS011;45084;51.486;7.366;2023-08-17T05:57:30;22.65;;;16.08;;
59312;SDS011;45084;51.486;7.366;2023-08-17T05:59:56;19.73;;;16.58;;
59312;SDS011;45084;51.486;7.366;2023-08-17T06:02:22;24.35;;;16.38;;
59312;SDS011;45084;51.486;7.366;2023-08-17T06:04:47;22.88;;;16.20;;
59312;SDS011;45084;51.486;7.366;2023-08-17T06:07:13;21.95;;;15.98;;
59312;SDS011;45084;51.486;7.366;2023-08-17T06:09:39;20.25;;;16.30;;
59312;SDS011;45084;51.486;7.366;2023-08-17T06:12:05;20.58;;;17.45;;
59312;SDS011;45084;51.486;7.366;2023-08-17T06:14:31;26.52;;;16.73;;
59312;SDS011;45084;51.486;7.366;2023-08-17T06:16:57;23.00;;;17.02;;
59312;SDS011;45084;51.486;7.366;2023-08-17T06:19:23;27.95;;;15.73;;
59312;SDS011;45084;51.486;7.366;2023-08-17T06:21:49;23.63;;;16.25;;
59312;SDS011;45084;51.486;7.366;2023-08-17T06:24:14;26.00;;;16.40;;
59312;SDS011;45084;51.486;7.366;2023-08-17T06:26:40;29.15;;;16.10;;
59312;SDS011;45084;51.486;7.366;2023-08-17T06:29:06;24.02;;;15.60;;
59312;SDS011;45084;51.486;7.366;2023-08-17T06:31:32;20.98;;;15.88;;
59312;SDS011;45084;51.486;7.366;2023-08-17T06:33:58;24.70;;;16.45;;
59312;SDS011;45084;51.486;7.366;2023-08-17T06:36:23;22.85;;;16.48;;
59312;SDS011;45084;51.486;7.366;2023-08-17T06:38:49;22.67;;;14.77;;
59312;SDS011;45084;51.486;7.366;2023-08-17T06:41:15;18.88;;;13.93;;
59312;SDS011;45084;51.486;7.366;2023-08-17T06:43:41;17.02;;;13.07;;
59312;SDS011;45084;51.486;7.366;2023-08-17T06:46:06;17.02;;;14.52;;
59312;SDS011;45084;51.486;7.366;2023-08-17T06:48:32;20.63;;;13.85;;
59312;SDS011;45084;51.486;7.366;2023-08-17T06:50:58;24.17;;;13.55;;
59312;SDS011;45084;51.486;7.366;2023-08-17T06:53:23;17.42;;;12.07;;
59312;SDS011;45084;51.486;7.366;2023-08-17T06:55:49;19.88;;;13.57;;
59312;SDS011;45084;51.486;7.366;2023-08-17T06:58:14;20.13;;;12.27;;
59312;SDS011;45084;51.486;7.366;2023-08-17T07:00:40;16.67;;;12.50;;
59312;SDS011;45084;51.486;7.366;2023-08-17T07:03:06;17.45;;;11.82;;
59312;SDS011;45084;51.486;7.366;2023-08-17T07:05:33;17.08;;;12.45;;
59312;SDS011;45084;51.486;7.366;2023-08-17T07:07:59;22.00;;;13.60;;
59312;SDS011;45084;51.486;7.366;2023-08-17T07:10:25;16.70;;;12.73;;
59312;SDS011;45084;51.486;7.366;2023-08-17T07:12:51;20.23;;;13.00;;
59312;SDS011;45084;51.486;7.366;2023-08-17T07:15:18;22.00;;;13.95;;
59312;SDS011;45084;51.486;7.366;2023-08-17T07:17:43;19.27;;;14.82;;
59312;SDS011;45084;51.486;7.366;2023-08-17T07:20:09;23.63;;;16.13;;
59312;SDS011;45084;51.486;7.366;2023-08-17T07:22:36;24.02;;;14.70;;
59312;SDS011;45084;51.486;7.366;2023-08-17T07:25:02;20.92;;;15.30;;
59312;SDS011;45084;51.486;7.366;2023-08-17T07:27:28;19.08;;;15.07;;
59312;SDS011;45084;51.486;7.366;2023-08-17T07:29:54;23.35;;;15.57;;
59312;SDS011;45084;51.486;7.366;2023-08-17T07:32:20;19.08;;;16.23;;
59312;SDS011;45084;51.486;7.366;2023-08-17T07:34:46;21.48;;;16.70;;
59312;SDS011;45084;51.486;7.366;2023-08-17T07:37:12;21.85;;;16.98;;
59312;SDS011;45084;51.486;7.366;2023-08-17T07:39:38;19.73;;;17.63;;
59312;SDS011;45084;51.486;7.366;2023-08-17T07:42:03;22.13;;;18.80;;
59312;SDS011;45084;51.486;7.366;2023-08-17T07:44:29;23.60;;;19.50;;
59312;SDS011;45084;51.486;7.366;2023-08-17T07:46:56;22.67;;;17.58;;
59312;SDS011;45084;51.486;7.366;2023-08-17T07:49:22;23.05;;;19.33;;
59312;SDS011;45084;51.486;7.366;2023-08-17T07:51:49;19.92;;;17.77;;
59312;SDS011;45084;51.486;7.366;2023-08-17T07:54:15;24.75;;;20.10;;
59312;SDS011;45084;51.486;7.366;2023-08-17T07:56:40;21.75;;;18.30;;
59312;SDS011;45084;51.486;7.366;2023-08-17T07:59:06;25.02;;;17.45;;
59312;SDS011;45084;51.486;7.366;2023-08-17T08:01:31;22.50;;;17.98;;
59312;SDS011;45084;51.486;7.366;2023-08-17T08:03:57;22.98;;;18.00;;
59312;SDS011;45084;51.486;7.366;2023-08-17T08:06:23;27.98;;;19.90;;
59312;SDS011;45084;51.486;7.366;2023-08-17T08:08:48;26.17;;;19.40;;
59312;SDS011;45084;51.486;7.366;2023-08-17T08:11:14;24.65;;;19.50;;
59312;SDS011;45084;51.486;7.366;2023-08-17T08:13:39;27.55;;;19.90;;
59312;SDS011;45084;51.486;7.366;2023-08-17T08:16:05;26.77;;;20.02;;
59312;SDS011;45084;51.486;7.366;2023-08-17T08:18:31;23.55;;;18.10;;
59312;SDS011;45084;51.486;7.366;2023-08-17T08:20:56;26.00;;;20.48;;
59312;SDS011;45084;51.486;7.366;2023-08-17T08:23:22;24.38;;;19.30;;
59312;SDS011;45084;51.486;7.366;2023-08-17T08:25:47;27.85;;;19.15;;
59312;SDS011;45084;51.486;7.366;2023-08-17T08:28:13;24.52;;;18.15;;
59312;SDS011;45084;51.486;7.366;2023-08-17T08:30:39;21.23;;;16.50;;
59312;SDS011;45084;51.486;7.366;2023-08-17T08:33:04;24.33;;;18.13;;
59312;SDS011;45084;51.486;7.366;2023-08-17T08:35:30;19.02;;;16.67;;
59312;SDS011;45084;51.486;7.366;2023-08-17T08:37:56;19.25;;;15.25;;
59312;SDS011;45084;51.486;7.366;2023-08-17T08:40:32;19.65;;;14.77;;
59312;SDS011;45084;51.486;7.366;2023-08-17T08:43:01;21.02;;;15.82;;
59312;SDS011;45084;51.486;7.366;2023-08-17T08:45:27;21.25;;;15.85;;
59312;SDS011;45084;51.486;7.366;2023-08-17T08:47:54;21.50;;;17.02;;
59312;SDS011;45084;51.486;7.366;2023-08-17T08:50:21;19.77;;;16.45;;
59312;SDS011;45084;51.486;7.366;2023-08-17T08:52:57;18.58;;;16.50;;
59312;SDS011;45084;51.486;7.366;2023-08-17T08:55:26;20.73;;;17.15;;
59312;SDS011;45084;51.486;7.366;2023-08-17T08:57:54;22.45;;;16.75;;
59312;SDS011;45084;51.486;7.366;2023-08-17T09:00:21;22.80;;;16.90;;
59312;SDS011;45084;51.486;7.366;2023-08-17T09:02:47;24.13;;;17.40;;
59312;SDS011;45084;51.486;7.366;2023-08-17T09:05:14;18.45;;;16.55;;
59312;SDS011;45084;51.486;7.366;2023-08-17T09:07:40;23.33;;;17.83;;
59312;SDS011;45084;51.486;7.366;2023-08-17T09:10:07;19.45;;;17.30;;
59312;SDS011;45084;51.486;7.366;2023-08-17T09:12:34;23.02;;;17.88;;
59312;SDS011;45084;51.486;7.366;2023-08-17T09:15:00;27.92;;;19.10;;
59312;SDS011;45084;51.486;7.366;2023-08-17T09:17:26;20.95;;;17.80;;
59312;SDS011;45084;51.486;7.366;2023-08-17T09:19:52;25.55;;;18.60;;
59312;SDS011;45084;51.486;7.366;2023-08-17T09:22:25;23.77;;;18.27;;
59312;SDS011;45084;51.486;7.366;2023-08-17T09:25:08;21.58;;;18.00;;
59312;SDS011;45084;51.486;7.366;2023-08-17T09:27:38;20.30;;;17.80;;
59312;SDS011;45084;51.486;7.366;2023-08-17T09:30:04;22.13;;;17.63;;
59312;SDS011;45084;51.486;7.366;2023-08-17T09:32:32;19.30;;;16.92;;
59312;SDS011;45084;51.486;7.366;2023-08-17T09:35:02;21.88;;;16.25;;
59312;SDS011;45084;51.486;7.366;2023-08-17T09:37:29;19.13;;;15.77;;
59312;SDS011;45084;51.486;7.366;2023-08-17T09:39:55;17.00;;;14.95;;
59312;SDS011;45084;51.486;7.366;2023-08-17T09:42:21;17.23;;;14.82;;
59312;SDS011;45084;51.486;7.366;2023-08-17T09:44:48;18.25;;;14.02;;
59312;SDS011;45084;51.486;7.366;2023-08-17T09:47:14;14.20;;;12.70;;
59312;SDS011;45084;51.486;7.366;2023-08-17T09:49:42;17.00;;;14.38;;
59312;SDS011;45084;51.486;7.366;2023-08-17T09:52:18;19.70;;;15.77;;
59312;SDS011;45084;51.486;7.366;2023-08-17T09:54:45;17.60;;;15.80;;
59312;SDS011;45084;51.486;7.366;2023-08-17T09:57:12;19.80;;;16.02;;
59312;SDS011;45084;51.486;7.366;2023-08-17T09:59:38;21.80;;;15.40;;
59312;SDS011;45084;51.486;7.366;2023-08-17T10:02:03;19.88;;;15.38;;
59312;SDS011;45084;51.486;7.366;2023-08-17T10:04:42;18.73;;;15.95;;
59312;SDS011;45084;51.486;7.366;2023-08-17T10:07:09;21.77;;;16.85;;
59312;SDS011;45084;51.486;7.366;2023-08-17T10:09:38;19.00;;;15.30;;
59312;SDS011;45084;51.486;7.366;2023-08-17T10:12:12;16.95;;;15.13;;
59312;SDS011;45084;51.486;7.366;2023-08-17T10:14:42;17.67;;;14.98;;
59312;SDS011;45084;51.486;7.366;2023-08-17T10:17:12;18.50;;;14.57;;
59312;SDS011;45084;51.486;7.366;2023-08-17T10:19:43;16.60;;;14.43;;
59312;SDS011;45084;51.486;7.366;2023-08-17T10:22:20;15.57;;;13.88;;
59312;SDS011;45084;51.486;7.366;2023-08-17T10:24:54;16.58;;;13.10;;
59312;SDS011;45084;51.486;7.366;2023-08-17T10:27:23;14.93;;;13.40;;
59312;SDS011;45084;51.486;7.366;2023-08-17T10:29:49;21.27;;;13.80;;
59312;SDS011;45084;51.486;7.366;2023-08-17T10:32:16;16.73;;;12.98;;
59312;SDS011;45084;51.486;7.366;2023-08-17T10:34:42;15.10;;;12.50;;
59312;SDS011;45084;51.486;7.366;2023-08-17T10:37:08;13.18;;;11.77;;
59312;SDS011;45084;51.486;7.366;2023-08-17T10:39:34;11.65;;;10.43;;
59312;SDS011;45084;51.486;7.366;2023-08-17T10:42:04;13.32;;;10.80;;
59312;SDS011;45084;51.486;7.366;2023-08-17T10:44:48;14.52;;;10.98;;
59312;SDS011;45084;51.486;7.366;2023-08-17T10:49:47;11.68;;;10.50;;
59312;SDS011;45084;51.486;7.366;2023-08-17T10:52:30;16.20;;;13.35;;
59312;SDS011;45084;51.486;7.366;2023-08-17T10:55:01;13.70;;;12.30;;
59312;SDS011;45084;51.486;7.366;2023-08-17T10:57:39;14.90;;;11.43;;
59312;SDS011;45084;51.486;7.366;2023-08-17T11:02:40;13.48;;;11.13;;
59312;SDS011;45084;51.486;7.366;2023-08-17T11:05:08;13.65;;;11.48;;
59312;SDS011;45084;51.486;7.366;2023-08-17T11:07:43;12.60;;;11.15;;
59312;SDS011;45084;51.486;7.366;2023-08-17T11:12:44;17.85;;;12.23;;
59312;SDS011;45084;51.486;7.366;2023-08-17T11:15:10;18.65;;;12.70;;
59312;SDS011;45084;51.486;7.366;2023-08-17T11:17:36;13.02;;;11.73;;
59312;SDS011;45084;51.486;7.366;2023-08-17T11:20:01;14.65;;;12.32;;
59312;SDS011;45084;51.486;7.366;2023-08-17T11:22:28;14.82;;;11.48;;
59312;SDS011;45084;51.486;7.366;2023-08-17T11:24:54;15.85;;;12.57;;
59312;SDS011;45084;51.486;7.366;2023-08-17T11:27:20;13.70;;;11.68;;
59312;SDS011;45084;51.486;7.366;2023-08-17T11:29:45;13.40;;;11.82;;
59312;SDS011;45084;51.486;7.366;2023-08-17T11:32:12;16.98;;;11.80;;
59312;SDS011;45084;51.486;7.366;2023-08-17T11:34:40;14.95;;;12.80;;
59312;SDS011;45084;51.486;7.366;2023-08-17T11:37:06;17.08;;;13.38;;
59312;SDS011;45084;51.486;7.366;2023-08-17T11:39:34;18.48;;;14.68;;
59312;SDS011;45084;51.486;7.366;2023-08-17T11:42:00;18.35;;;14.77;;
59312;SDS011;45084;51.486;7.366;2023-08-17T11:44:26;18.85;;;14.95;;
59312;SDS011;45084;51.486;7.366;2023-08-17T11:46:51;17.60;;;15.50;;
59312;SDS011;45084;51.486;7.366;2023-08-17T11:49:18;19.65;;;16.77;;
59312;SDS011;45084;51.486;7.366;2023-08-17T11:51:43;19.38;;;16.60;;
59312;SDS011;45084;51.486;7.366;2023-08-17T11:54:10;19.67;;;15.90;;
59312;SDS011;45084;51.486;7.366;2023-08-17T11:56:36;21.85;;;15.35;;
59312;SDS011;45084;51.486;7.366;2023-08-17T11:59:08;18.35;;;15.52;;
59312;SDS011;45084;51.486;7.366;2023-08-17T12:01:44;17.67;;;13.65;;
59312;SDS011;45084;51.486;7.366;2023-08-17T12:04:10;20.25;;;14.90;;
59312;SDS011;45084;51.486;7.366;2023-08-17T12:06:42;21.35;;;14.90;;
59312;SDS011;45084;51.486;7.366;2023-08-17T12:09:11;16.98;;;14.13;;
59312;SDS011;45084;51.486;7.366;2023-08-17T12:11:40;17.23;;;13.77;;
59312;SDS011;45084;51.486;7.366;2023-08-17T12:14:09;14.95;;;13.40;;
59312;SDS011;45084;51.486;7.366;2023-08-17T12:16:44;19.20;;;13.18;;
59312;SDS011;45084;51.486;7.366;2023-08-17T12:19:12;16.80;;;14.50;;
59312;SDS011;45084;51.486;7.366;2023-08-17T12:21:37;15.90;;;13.63;;
59312;SDS011;45084;51.486;7.366;2023-08-17T12:24:07;14.05;;;12.55;;
59312;SDS011;45084;51.486;7.366;2023-08-17T12:26:34;14.90;;;13.35;;
59312;SDS011;45084;51.486;7.366;2023-08-17T12:29:00;16.05;;;13.57;;
59312;SDS011;45084;51.486;7.366;2023-08-17T12:31:29;16.13;;;12.68;;
59312;SDS011;45084;51.486;7.366;2023-08-17T12:33:56;15.48;;;12.02;;
59312;SDS011;45084;51.486;7.366;2023-08-17T12:36:22;17.00;;;10.98;;
59312;SDS011;45084;51.486;7.366;2023-08-17T12:38:47;14.75;;;11.02;;
59312;SDS011;45084;51.486;7.366;2023-08-17T12:41:13;14.82;;;10.93;;
59312;SDS011;45084;51.486;7.366;2023-08-17T12:43:39;14.27;;;10.05;;
59312;SDS011;45084;51.486;7.366;2023-08-17T12:46:04;13.23;;;10.73;;
59312;SDS011;45084;51.486;7.366;2023-08-17T12:48:30;12.23;;;9.68;;
59312;SDS011;45084;51.486;7.366;2023-08-17T12:50:56;10.65;;;9.57;;
59312;SDS011;45084;51.486;7.366;2023-08-17T12:53:21;11.95;;;10.25;;
59312;SDS011;45084;51.486;7.366;2023-08-17T12:55:47;13.38;;;9.95;;
59312;SDS011;45084;51.486;7.366;2023-08-17T12:58:14;11.85;;;9.40;;
59312;SDS011;45084;51.486;7.366;2023-08-17T13:00:39;10.00;;;8.68;;
59312;SDS011;45084;51.486;7.366;2023-08-17T13:03:05;12.95;;;9.38;;
59312;SDS011;45084;51.486;7.366;2023-08-17T13:05:30;10.50;;;9.60;;
59312;SDS011;45084;51.486;7.366;2023-08-17T13:07:57;12.55;;;10.90;;
59312;SDS011;45084;51.486;7.366;2023-08-17T13:10:22;11.80;;;10.48;;
59312;SDS011;45084;51.486;7.366;2023-08-17T13:12:48;11.25;;;9.82;;
59312;SDS011;45084;51.486;7.366;2023-08-17T13:15:13;11.18;;;10.00;;
59312;SDS011;45084;51.486;7.366;2023-08-17T13:17:39;38.28;;;13.70;;
59312;SDS011;45084;51.486;7.366;2023-08-17T13:20:05;13.70;;;11.57;;
59312;SDS011;45084;51.486;7.366;2023-08-17T13:22:31;14.38;;;12.70;;
59312;SDS011;45084;51.486;7.366;2023-08-17T13:24:57;19.63;;;13.57;;
59312;SDS011;45084;51.486;7.366;2023-08-17T13:27:23;15.23;;;12.32;;
59312;SDS011;45084;51.486;7.366;2023-08-17T13:29:48;14.75;;;13.00;;
59312;SDS011;45084;51.486;7.366;2023-08-17T13:32:14;17.95;;;14.43;;
59312;SDS011;45084;51.486;7.366;2023-08-17T13:34:40;16.70;;;13.50;;
59312;SDS011;45084;51.486;7.366;2023-08-17T13:37:05;23.98;;;14.60;;
59312;SDS011;45084;51.486;7.366;2023-08-17T13:39:31;16.60;;;14.60;;
59312;SDS011;45084;51.486;7.366;2023-08-17T13:41:57;17.70;;;15.18;;
59312;SDS011;45084;51.486;7.366;2023-08-17T13:44:23;18.90;;;14.88;;
59312;SDS011;45084;51.486;7.366;2023-08-17T13:46:48;15.90;;;14.20;;
59312;SDS011;45084;51.486;7.366;2023-08-17T13:49:14;18.15;;;14.25;;
59312;SDS011;45084;51.486;7.366;2023-08-17T13:51:39;13.00;;;11.60;;
59312;SDS011;45084;51.486;7.366;2023-08-17T13:54:05;13.32;;;11.93;;
59312;SDS011;45084;51.486;7.366;2023-08-17T13:56:31;15.70;;;13.57;;
59312;SDS011;45084;51.486;7.366;2023-08-17T13:58:56;17.35;;;13.88;;
59312;SDS011;45084;51.486;7.366;2023-08-17T14:01:22;17.42;;;14.32;;
59312;SDS011;45084;51.486;7.366;2023-08-17T14:03:47;16.77;;;13.52;;
59312;SDS011;45084;51.486;7.366;2023-08-17T14:06:13;14.18;;;12.77;;
59312;SDS011;45084;51.486;7.366;2023-08-17T14:08:39;14.85;;;13.15;;
59312;SDS011;45084;51.486;7.366;2023-08-17T14:11:04;17.10;;;13.60;;
59312;SDS011;45084;51.486;7.366;2023-08-17T14:13:31;19.85;;;13.60;;
59312;SDS011;45084;51.486;7.366;2023-08-17T14:15:57;15.70;;;13.85;;
59312;SDS011;45084;51.486;7.366;2023-08-17T14:18:24;16.27;;;14.65;;
59312;SDS011;45084;51.486;7.366;2023-08-17T14:20:50;18.00;;;14.48;;
59312;SDS011;45084;51.486;7.366;2023-08-17T14:23:15;18.85;;;15.68;;
59312;SDS011;45084;51.486;7.366;2023-08-17T14:25:41;17.83;;;14.70;;
59312;SDS011;45084;51.486;7.366;2023-08-17T14:28:06;18.00;;;13.82;;
59312;SDS011;45084;51.486;7.366;2023-08-17T14:30:33;16.45;;;13.98;;